sensor_id;sensor_type;location;lat;lon;timestamp;temperature;humidity
23186;DHT22;11761;51.324;4.590;2022-12-24T00:00:38;11.10;99.90
23186;DHT22;11761;51.324;4.590;2022-12-24T00:03:04;10.90;99.90
23186;DHT22;11761;51.324;4.590;2022-12-24T00:05:30;11.00;99.90
23186;DHT22;11761;51.324;4.590;2022-12-24T00:07:57;10.90;99.90
23186;DHT22;11761;51.324;4.590;2022-12-24T00:10:23;11.10;99.90
23186;DHT22;11761;51.324;4.590;2022-12-24T00:12:49;11.10;99.90
23186;DHT22;11761;51.324;4.590;2022-12-24T00:15:15;11.00;99.90
23186;DHT22;11761;51.324;4.590;2022-12-24T00:17:41;10.90;99.90
23186;DHT22;11761;51.324;4.590;2022-12-24T00:20:08;10.90;99.90
23186;DHT22;11761;51.324;4.590;2022-12-24T00:22:34;10.80;99.90
23186;DHT22;11761;51.324;4.590;2022-12-24T00:25:00;10.80;99.90
23186;DHT22;11761;51.324;4.590;2022-12-24T00:27:26;10.80;99.90
23186;DHT22;11761;51.324;4.590;2022-12-24T00:29:52;10.70;99.90
23186;DHT22;11761;51.324;4.590;2022-12-24T00:32:18;10.70;99.90
23186;DHT22;11761;51.324;4.590;2022-12-24T00:34:45;10.70;99.90
23186;DHT22;11761;51.324;4.590;2022-12-24T00:37:11;10.60;99.90
23186;DHT22;11761;51.324;4.590;2022-12-24T00:39:37;10.50;99.90
23186;DHT22;11761;51.324;4.590;2022-12-24T00:42:03;10.40;99.90
23186;DHT22;11761;51.324;4.590;2022-12-24T00:44:29;10.40;99.90
23186;DHT22;11761;51.324;4.590;2022-12-24T00:46:55;10.50;99.90
23186;DHT22;11761;51.324;4.590;2022-12-24T00:49:21;10.50;99.90
23186;DHT22;11761;51.324;4.590;2022-12-24T00:51:48;10.50;99.90
23186;DHT22;11761;51.324;4.590;2022-12-24T00:54:14;10.50;99.90
23186;DHT22;11761;51.324;4.590;2022-12-24T00:56:40;10.50;99.90
23186;DHT22;11761;51.324;4.590;2022-12-24T00:59:06;10.50;99.90
23186;DHT22;11761;51.324;4.590;2022-12-24T01:01:32;10.70;99.90
23186;DHT22;11761;51.324;4.590;2022-12-24T01:04:00;10.80;99.90
23186;DHT22;11761;51.324;4.590;2022-12-24T01:06:45;10.70;99.90
23186;DHT22;11761;51.324;4.590;2022-12-24T01:09:11;10.80;99.90
23186;DHT22;11761;51.324;4.590;2022-12-24T01:11:37;10.80;99.90
23186;DHT22;11761;51.324;4.590;2022-12-24T01:14:03;10.90;99.90
23186;DHT22;11761;51.324;4.590;2022-12-24T01:16:29;10.90;99.90
23186;DHT22;11761;51.324;4.590;2022-12-24T01:18:55;10.90;99.90
23186;DHT22;11761;51.324;4.590;2022-12-24T01:21:22;10.90;99.90
23186;DHT22;11761;51.324;4.590;2022-12-24T01:23:48;10.80;99.90
23186;DHT22;11761;51.324;4.590;2022-12-24T01:26:14;10.90;99.90
23186;DHT22;11761;51.324;4.590;2022-12-24T01:28:40;11.00;99.90
23186;DHT22;11761;51.324;4.590;2022-12-24T01:31:14;11.00;99.90
23186;DHT22;11761;51.324;4.590;2022-12-24T01:33:41;11.00;99.90
23186;DHT22;11761;51.324;4.590;2022-12-24T01:36:08;11.10;99.90
23186;DHT22;11761;51.324;4.590;2022-12-24T01:38:34;11.10;99.90
23186;DHT22;11761;51.324;4.590;2022-12-24T01:41:01;11.10;99.90
23186;DHT22;11761;51.324;4.590;2022-12-24T01:43:46;11.10;99.90
23186;DHT22;11761;51.324;4.590;2022-12-24T01:46:24;11.10;99.90
23186;DHT22;11761;51.324;4.590;2022-12-24T01:49:01;11.20;99.90
23186;DHT22;11761;51.324;4.590;2022-12-24T01:54:06;11.10;99.90
23186;DHT22;11761;51.324;4.590;2022-12-24T01:56:37;11.10;99.90
23186;DHT22;11761;51.324;4.590;2022-12-24T01:59:08;11.10;99.90
23186;DHT22;11761;51.324;4.590;2022-12-24T02:01:36;11.10;99.90
23186;DHT22;11761;51.324;4.590;2022-12-24T02:06:42;11.20;99.90
23186;DHT22;11761;51.324;4.590;2022-12-24T02:09:08;11.20;99.90
23186;DHT22;11761;51.324;4.590;2022-12-24T02:11:36;11.20;99.90
23186;DHT22;11761;51.324;4.590;2022-12-24T02:14:04;11.20;99.90
23186;DHT22;11761;51.324;4.590;2022-12-24T02:16:43;11.20;99.90
23186;DHT22;11761;51.324;4.590;2022-12-24T02:30:44;11.10;99.90
23186;DHT22;11761;51.324;4.590;2022-12-24T02:33:36;11.20;99.90
23186;DHT22;11761;51.324;4.590;2022-12-24T02:36:11;11.10;99.90
23186;DHT22;11761;51.324;4.590;2022-12-24T02:39:04;11.10;99.90
23186;DHT22;11761;51.324;4.590;2022-12-24T02:41:34;11.10;99.90
23186;DHT22;11761;51.324;4.590;2022-12-24T02:44:22;11.00;99.90
23186;DHT22;11761;51.324;4.590;2022-12-24T02:46:50;11.00;99.90
23186;DHT22;11761;51.324;4.590;2022-12-24T02:49:17;11.00;99.90
23186;DHT22;11761;51.324;4.590;2022-12-24T02:51:43;11.00;99.90
23186;DHT22;11761;51.324;4.590;2022-12-24T02:54:10;11.00;99.90
23186;DHT22;11761;51.324;4.590;2022-12-24T02:57:01;11.00;99.90
23186;DHT22;11761;51.324;4.590;2022-12-24T03:05:32;11.10;99.90
23186;DHT22;11761;51.324;4.590;2022-12-24T03:11:02;11.20;99.90
23186;DHT22;11761;51.324;4.590;2022-12-24T03:13:33;11.10;99.90
23186;DHT22;11761;51.324;4.590;2022-12-24T03:16:00;11.10;99.90
23186;DHT22;11761;51.324;4.590;2022-12-24T03:18:30;11.10;99.90
23186;DHT22;11761;51.324;4.590;2022-12-24T03:21:06;11.20;99.90
23186;DHT22;11761;51.324;4.590;2022-12-24T03:23:34;11.20;99.90
23186;DHT22;11761;51.324;4.590;2022-12-24T03:26:05;11.20;99.90
23186;DHT22;11761;51.324;4.590;2022-12-24T03:28:32;11.20;99.90
23186;DHT22;11761;51.324;4.590;2022-12-24T03:31:00;11.20;99.90
23186;DHT22;11761;51.324;4.590;2022-12-24T03:33:28;11.10;99.90
23186;DHT22;11761;51.324;4.590;2022-12-24T03:35:54;11.10;99.90
23186;DHT22;11761;51.324;4.590;2022-12-24T03:38:20;11.10;99.90
23186;DHT22;11761;51.324;4.590;2022-12-24T03:40:46;11.20;99.90
23186;DHT22;11761;51.324;4.590;2022-12-24T03:43:13;11.10;99.90
23186;DHT22;11761;51.324;4.590;2022-12-24T03:45:39;11.10;99.90
23186;DHT22;11761;51.324;4.590;2022-12-24T03:48:06;11.20;99.90
23186;DHT22;11761;51.324;4.590;2022-12-24T03:50:32;11.30;99.90
23186;DHT22;11761;51.324;4.590;2022-12-24T03:52:58;11.30;99.90
23186;DHT22;11761;51.324;4.590;2022-12-24T03:55:24;11.30;99.90
23186;DHT22;11761;51.324;4.590;2022-12-24T03:57:50;11.30;99.90
23186;DHT22;11761;51.324;4.590;2022-12-24T04:00:17;11.40;99.90
23186;DHT22;11761;51.324;4.590;2022-12-24T04:02:43;11.40;99.90
23186;DHT22;11761;51.324;4.590;2022-12-24T04:05:15;11.30;99.90
23186;DHT22;11761;51.324;4.590;2022-12-24T04:07:42;11.30;99.90
23186;DHT22;11761;51.324;4.590;2022-12-24T04:10:09;11.40;99.90
23186;DHT22;11761;51.324;4.590;2022-12-24T04:12:36;11.40;99.90
23186;DHT22;11761;51.324;4.590;2022-12-24T04:15:03;11.40;99.90
23186;DHT22;11761;51.324;4.590;2022-12-24T04:17:29;11.30;99.90
23186;DHT22;11761;51.324;4.590;2022-12-24T04:19:55;11.30;99.90
23186;DHT22;11761;51.324;4.590;2022-12-24T04:22:21;11.30;99.90
23186;DHT22;11761;51.324;4.590;2022-12-24T04:24:54;11.30;99.90
23186;DHT22;11761;51.324;4.590;2022-12-24T04:27:20;11.30;99.90
23186;DHT22;11761;51.324;4.590;2022-12-24T04:29:47;11.30;99.90
23186;DHT22;11761;51.324;4.590;2022-12-24T04:32:13;11.30;99.90
23186;DHT22;11761;51.324;4.590;2022-12-24T04:34:39;11.30;99.90
23186;DHT22;11761;51.324;4.590;2022-12-24T04:37:05;11.40;99.90
23186;DHT22;11761;51.324;4.590;2022-12-24T04:39:32;11.30;99.90
23186;DHT22;11761;51.324;4.590;2022-12-24T04:41:58;11.30;99.90
23186;DHT22;11761;51.324;4.590;2022-12-24T04:44:24;11.40;99.90
23186;DHT22;11761;51.324;4.590;2022-12-24T04:46:50;11.40;99.90
23186;DHT22;11761;51.324;4.590;2022-12-24T04:49:16;11.30;99.90
23186;DHT22;11761;51.324;4.590;2022-12-24T04:51:42;11.30;99.90
23186;DHT22;11761;51.324;4.590;2022-12-24T04:54:08;11.30;99.90
23186;DHT22;11761;51.324;4.590;2022-12-24T04:56:35;11.30;99.90
23186;DHT22;11761;51.324;4.590;2022-12-24T04:59:01;11.30;99.90
23186;DHT22;11761;51.324;4.590;2022-12-24T05:01:30;11.10;99.90
23186;DHT22;11761;51.324;4.590;2022-12-24T05:03:57;11.10;99.90
23186;DHT22;11761;51.324;4.590;2022-12-24T05:06:27;11.10;99.90
23186;DHT22;11761;51.324;4.590;2022-12-24T05:08:54;11.00;99.90
23186;DHT22;11761;51.324;4.590;2022-12-24T05:11:21;11.00;99.90
23186;DHT22;11761;51.324;4.590;2022-12-24T05:13:47;11.10;99.90
23186;DHT22;11761;51.324;4.590;2022-12-24T05:16:15;11.10;99.90
23186;DHT22;11761;51.324;4.590;2022-12-24T05:18:42;11.10;99.90
23186;DHT22;11761;51.324;4.590;2022-12-24T05:21:10;11.10;99.90
23186;DHT22;11761;51.324;4.590;2022-12-24T05:23:37;11.10;99.90
23186;DHT22;11761;51.324;4.590;2022-12-24T05:26:30;11.20;99.90
23186;DHT22;11761;51.324;4.590;2022-12-24T05:28:59;11.30;99.90
23186;DHT22;11761;51.324;4.590;2022-12-24T05:31:27;11.20;99.90
23186;DHT22;11761;51.324;4.590;2022-12-24T05:33:54;11.20;99.90
23186;DHT22;11761;51.324;4.590;2022-12-24T05:36:21;11.20;99.90
23186;DHT22;11761;51.324;4.590;2022-12-24T05:38:48;11.20;99.90
23186;DHT22;11761;51.324;4.590;2022-12-24T05:41:14;11.10;99.90
23186;DHT22;11761;51.324;4.590;2022-12-24T05:43:41;11.10;99.90
23186;DHT22;11761;51.324;4.590;2022-12-24T05:46:09;11.10;99.90
23186;DHT22;11761;51.324;4.590;2022-12-24T05:48:36;11.00;99.90
23186;DHT22;11761;51.324;4.590;2022-12-24T05:51:07;11.00;99.90
23186;DHT22;11761;51.324;4.590;2022-12-24T05:53:34;10.90;99.90
23186;DHT22;11761;51.324;4.590;2022-12-24T05:56:09;10.80;99.90
23186;DHT22;11761;51.324;4.590;2022-12-24T05:58:35;10.80;99.90
23186;DHT22;11761;51.324;4.590;2022-12-24T06:01:03;10.70;99.90
23186;DHT22;11761;51.324;4.590;2022-12-24T06:03:30;10.70;99.90
23186;DHT22;11761;51.324;4.590;2022-12-24T06:06:17;10.60;99.90
23186;DHT22;11761;51.324;4.590;2022-12-24T06:08:46;10.70;99.90
23186;DHT22;11761;51.324;4.590;2022-12-24T06:11:14;10.80;99.90
23186;DHT22;11761;51.324;4.590;2022-12-24T06:13:41;10.90;99.90
23186;DHT22;11761;51.324;4.590;2022-12-24T06:16:12;10.80;99.90
23186;DHT22;11761;51.324;4.590;2022-12-24T06:18:38;10.90;99.90
23186;DHT22;11761;51.324;4.590;2022-12-24T06:21:05;10.90;99.90
23186;DHT22;11761;51.324;4.590;2022-12-24T06:23:34;10.90;99.90
23186;DHT22;11761;51.324;4.590;2022-12-24T06:26:01;10.90;99.90
23186;DHT22;11761;51.324;4.590;2022-12-24T06:28:29;10.90;99.90
23186;DHT22;11761;51.324;4.590;2022-12-24T06:30:56;10.90;99.90
23186;DHT22;11761;51.324;4.590;2022-12-24T06:33:22;10.90;99.90
23186;DHT22;11761;51.324;4.590;2022-12-24T06:35:49;11.00;99.90
23186;DHT22;11761;51.324;4.590;2022-12-24T06:38:15;10.90;99.90
23186;DHT22;11761;51.324;4.590;2022-12-24T06:40:43;10.90;99.90
23186;DHT22;11761;51.324;4.590;2022-12-24T06:43:10;11.00;99.90
23186;DHT22;11761;51.324;4.590;2022-12-24T06:45:37;11.00;99.90
23186;DHT22;11761;51.324;4.590;2022-12-24T06:48:03;10.90;99.90
23186;DHT22;11761;51.324;4.590;2022-12-24T06:50:32;10.80;99.90
23186;DHT22;11761;51.324;4.590;2022-12-24T06:52:58;10.80;99.90
23186;DHT22;11761;51.324;4.590;2022-12-24T06:55:24;10.90;99.90
23186;DHT22;11761;51.324;4.590;2022-12-24T06:57:50;10.80;99.90
23186;DHT22;11761;51.324;4.590;2022-12-24T07:00:17;10.80;99.90
23186;DHT22;11761;51.324;4.590;2022-12-24T07:02:43;10.80;99.90
23186;DHT22;11761;51.324;4.590;2022-12-24T07:05:11;10.70;99.90
23186;DHT22;11761;51.324;4.590;2022-12-24T07:07:40;10.60;99.90
23186;DHT22;11761;51.324;4.590;2022-12-24T07:10:10;10.60;99.90
23186;DHT22;11761;51.324;4.590;2022-12-24T07:12:36;10.70;99.90
23186;DHT22;11761;51.324;4.590;2022-12-24T07:15:03;10.70;99.90
23186;DHT22;11761;51.324;4.590;2022-12-24T07:17:29;10.70;99.90
23186;DHT22;11761;51.324;4.590;2022-12-24T07:19:55;10.70;99.90
23186;DHT22;11761;51.324;4.590;2022-12-24T07:22:21;10.70;99.90
23186;DHT22;11761;51.324;4.590;2022-12-24T07:24:48;10.70;99.90
23186;DHT22;11761;51.324;4.590;2022-12-24T07:27:14;10.70;99.90
23186;DHT22;11761;51.324;4.590;2022-12-24T07:29:40;10.70;99.90
23186;DHT22;11761;51.324;4.590;2022-12-24T07:32:07;10.70;99.90
23186;DHT22;11761;51.324;4.590;2022-12-24T07:34:33;10.70;99.90
23186;DHT22;11761;51.324;4.590;2022-12-24T07:36:59;10.80;99.90
23186;DHT22;11761;51.324;4.590;2022-12-24T07:39:26;10.80;99.90
23186;DHT22;11761;51.324;4.590;2022-12-24T07:41:52;10.80;99.90
23186;DHT22;11761;51.324;4.590;2022-12-24T07:44:18;10.90;99.90
23186;DHT22;11761;51.324;4.590;2022-12-24T07:46:44;10.80;99.90
23186;DHT22;11761;51.324;4.590;2022-12-24T07:49:10;10.70;99.90
23186;DHT22;11761;51.324;4.590;2022-12-24T07:51:37;10.70;99.90
23186;DHT22;11761;51.324;4.590;2022-12-24T07:54:04;10.80;99.90
23186;DHT22;11761;51.324;4.590;2022-12-24T07:56:31;10.80;99.90
23186;DHT22;11761;51.324;4.590;2022-12-24T07:58:57;10.70;99.90
23186;DHT22;11761;51.324;4.590;2022-12-24T08:01:23;10.70;99.90
23186;DHT22;11761;51.324;4.590;2022-12-24T08:03:49;10.70;99.90
23186;DHT22;11761;51.324;4.590;2022-12-24T08:06:22;10.70;99.90
23186;DHT22;11761;51.324;4.590;2022-12-24T08:08:48;10.70;99.90
23186;DHT22;11761;51.324;4.590;2022-12-24T08:11:15;10.70;99.90
23186;DHT22;11761;51.324;4.590;2022-12-24T08:13:42;10.70;99.90
23186;DHT22;11761;51.324;4.590;2022-12-24T08:16:08;10.70;99.90
23186;DHT22;11761;51.324;4.590;2022-12-24T08:18:34;10.80;99.90
23186;DHT22;11761;51.324;4.590;2022-12-24T08:21:00;10.90;99.90
23186;DHT22;11761;51.324;4.590;2022-12-24T08:23:26;11.00;99.90
23186;DHT22;11761;51.324;4.590;2022-12-24T08:25:52;11.10;99.90
23186;DHT22;11761;51.324;4.590;2022-12-24T08:28:19;11.10;99.90
23186;DHT22;11761;51.324;4.590;2022-12-24T08:30:48;10.90;99.90
23186;DHT22;11761;51.324;4.590;2022-12-24T08:33:15;10.90;99.90
23186;DHT22;11761;51.324;4.590;2022-12-24T08:35:47;10.80;99.90
23186;DHT22;11761;51.324;4.590;2022-12-24T08:38:13;10.90;99.90
23186;DHT22;11761;51.324;4.590;2022-12-24T08:40:39;10.90;99.90
23186;DHT22;11761;51.324;4.590;2022-12-24T08:43:06;10.90;99.90
23186;DHT22;11761;51.324;4.590;2022-12-24T08:45:32;10.90;99.90
23186;DHT22;11761;51.324;4.590;2022-12-24T08:47:58;10.90;99.90
23186;DHT22;11761;51.324;4.590;2022-12-24T08:50:25;10.90;99.90
23186;DHT22;11761;51.324;4.590;2022-12-24T08:52:53;10.90;99.90
23186;DHT22;11761;51.324;4.590;2022-12-24T08:55:19;10.90;99.90
23186;DHT22;11761;51.324;4.590;2022-12-24T08:57:45;10.90;99.90
23186;DHT22;11761;51.324;4.590;2022-12-24T09:00:12;11.00;99.90
23186;DHT22;11761;51.324;4.590;2022-12-24T09:02:39;11.00;99.90
23186;DHT22;11761;51.324;4.590;2022-12-24T09:05:05;11.00;99.90
23186;DHT22;11761;51.324;4.590;2022-12-24T09:07:32;11.10;99.90
23186;DHT22;11761;51.324;4.590;2022-12-24T09:09:58;11.10;99.90
23186;DHT22;11761;51.324;4.590;2022-12-24T09:12:24;11.10;99.90
23186;DHT22;11761;51.324;4.590;2022-12-24T09:14:50;11.10;99.90
23186;DHT22;11761;51.324;4.590;2022-12-24T09:17:17;11.00;99.90
23186;DHT22;11761;51.324;4.590;2022-12-24T09:19:43;11.10;99.90
23186;DHT22;11761;51.324;4.590;2022-12-24T09:22:09;11.10;99.90
23186;DHT22;11761;51.324;4.590;2022-12-24T09:24:35;11.10;99.90
23186;DHT22;11761;51.324;4.590;2022-12-24T09:27:01;11.20;99.90
23186;DHT22;11761;51.324;4.590;2022-12-24T09:29:29;11.20;99.90
23186;DHT22;11761;51.324;4.590;2022-12-24T09:31:56;11.30;99.90
23186;DHT22;11761;51.324;4.590;2022-12-24T09:34:23;11.40;99.90
23186;DHT22;11761;51.324;4.590;2022-12-24T09:36:49;11.40;99.90
23186;DHT22;11761;51.324;4.590;2022-12-24T09:39:17;11.40;99.90
23186;DHT22;11761;51.324;4.590;2022-12-24T09:41:53;11.30;99.90
23186;DHT22;11761;51.324;4.590;2022-12-24T09:44:39;11.20;99.90
23186;DHT22;11761;51.324;4.590;2022-12-24T09:47:36;11.20;99.90
23186;DHT22;11761;51.324;4.590;2022-12-24T09:50:23;11.20;99.90
23186;DHT22;11761;51.324;4.590;2022-12-24T09:52:51;11.10;99.90
23186;DHT22;11761;51.324;4.590;2022-12-24T09:55:20;11.10;99.90
23186;DHT22;11761;51.324;4.590;2022-12-24T09:57:50;11.10;99.90
23186;DHT22;11761;51.324;4.590;2022-12-24T10:00:25;11.10;99.90
23186;DHT22;11761;51.324;4.590;2022-12-24T10:02:52;11.20;99.90
23186;DHT22;11761;51.324;4.590;2022-12-24T10:05:39;11.20;99.90
23186;DHT22;11761;51.324;4.590;2022-12-24T10:08:12;11.20;99.90
23186;DHT22;11761;51.324;4.590;2022-12-24T10:13:16;11.20;99.90
23186;DHT22;11761;51.324;4.590;2022-12-24T10:16:11;11.20;99.90
23186;DHT22;11761;51.324;4.590;2022-12-24T10:18:55;11.30;99.90
23186;DHT22;11761;51.324;4.590;2022-12-24T10:21:32;11.20;99.90
23186;DHT22;11761;51.324;4.590;2022-12-24T10:26:51;11.30;99.90
23186;DHT22;11761;51.324;4.590;2022-12-24T10:29:30;11.40;99.90
23186;DHT22;11761;51.324;4.590;2022-12-24T10:34:39;11.60;99.90
23186;DHT22;11761;51.324;4.590;2022-12-24T10:37:16;11.60;99.90
23186;DHT22;11761;51.324;4.590;2022-12-24T10:39:45;11.60;99.90
23186;DHT22;11761;51.324;4.590;2022-12-24T10:42:12;11.60;99.90
23186;DHT22;11761;51.324;4.590;2022-12-24T10:44:40;11.60;99.90
23186;DHT22;11761;51.324;4.590;2022-12-24T10:47:07;11.60;99.90
23186;DHT22;11761;51.324;4.590;2022-12-24T10:49:46;11.60;99.90
23186;DHT22;11761;51.324;4.590;2022-12-24T10:52:16;11.60;99.90
23186;DHT22;11761;51.324;4.590;2022-12-24T10:57:44;12.00;99.90
23186;DHT22;11761;51.324;4.590;2022-12-24T11:00:19;12.10;99.90
23186;DHT22;11761;51.324;4.590;2022-12-24T11:02:47;12.30;99.90
23186;DHT22;11761;51.324;4.590;2022-12-24T11:05:36;12.30;99.90
23186;DHT22;11761;51.324;4.590;2022-12-24T11:08:05;12.20;99.90
23186;DHT22;11761;51.324;4.590;2022-12-24T11:10:35;12.10;99.90
23186;DHT22;11761;51.324;4.590;2022-12-24T11:13:01;12.20;99.90
23186;DHT22;11761;51.324;4.590;2022-12-24T11:15:32;12.20;99.90
23186;DHT22;11761;51.324;4.590;2022-12-24T11:18:12;12.10;99.90
23186;DHT22;11761;51.324;4.590;2022-12-24T11:20:39;12.20;99.90
23186;DHT22;11761;51.324;4.590;2022-12-24T11:23:12;12.20;99.90
23186;DHT22;11761;51.324;4.590;2022-12-24T11:25:40;12.30;99.90
23186;DHT22;11761;51.324;4.590;2022-12-24T11:28:25;12.40;99.90
23186;DHT22;11761;51.324;4.590;2022-12-24T11:31:04;12.50;99.90
23186;DHT22;11761;51.324;4.590;2022-12-24T11:33:31;12.40;99.90
23186;DHT22;11761;51.324;4.590;2022-12-24T11:36:12;12.70;99.90
23186;DHT22;11761;51.324;4.590;2022-12-24T11:38:38;12.70;99.90
23186;DHT22;11761;51.324;4.590;2022-12-24T11:41:11;12.90;99.90
23186;DHT22;11761;51.324;4.590;2022-12-24T11:43:43;12.70;99.90
23186;DHT22;11761;51.324;4.590;2022-12-24T11:48:39;12.80;99.90
23186;DHT22;11761;51.324;4.590;2022-12-24T11:51:08;12.90;99.90
23186;DHT22;11761;51.324;4.590;2022-12-24T11:53:48;12.80;99.90
23186;DHT22;11761;51.324;4.590;2022-12-24T11:59:00;12.70;99.90
23186;DHT22;11761;51.324;4.590;2022-12-24T12:01:36;12.50;99.90
23186;DHT22;11761;51.324;4.590;2022-12-24T12:04:31;12.40;99.90
23186;DHT22;11761;51.324;4.590;2022-12-24T12:07:21;12.30;99.90
23186;DHT22;11761;51.324;4.590;2022-12-24T12:12:45;12.40;99.90
23186;DHT22;11761;51.324;4.590;2022-12-24T12:15:17;12.60;99.90
23186;DHT22;11761;51.324;4.590;2022-12-24T12:17:53;12.60;99.90
23186;DHT22;11761;51.324;4.590;2022-12-24T12:28:35;13.20;99.90
23186;DHT22;11761;51.324;4.590;2022-12-24T12:31:16;13.40;99.90
23186;DHT22;11761;51.324;4.590;2022-12-24T12:33:48;13.50;99.90
23186;DHT22;11761;51.324;4.590;2022-12-24T12:36:21;13.30;99.90
23186;DHT22;11761;51.324;4.590;2022-12-24T12:38:50;13.10;99.90
23186;DHT22;11761;51.324;4.590;2022-12-24T12:52:53;12.60;99.90
23186;DHT22;11761;51.324;4.590;2022-12-24T12:58:00;12.70;99.90
23186;DHT22;11761;51.324;4.590;2022-12-24T13:00:37;12.70;99.90
23186;DHT22;11761;51.324;4.590;2022-12-24T13:06:35;12.70;99.90
23186;DHT22;11761;51.324;4.590;2022-12-24T13:09:13;12.70;99.90
23186;DHT22;11761;51.324;4.590;2022-12-24T13:17:41;12.60;99.90
23186;DHT22;11761;51.324;4.590;2022-12-24T13:20:35;12.50;99.90
23186;DHT22;11761;51.324;4.590;2022-12-24T13:23:12;12.70;99.90
23186;DHT22;11761;51.324;4.590;2022-12-24T13:25:47;12.90;99.90
23186;DHT22;11761;51.324;4.590;2022-12-24T13:36:04;12.90;99.90
23186;DHT22;11761;51.324;4.590;2022-12-24T13:38:39;12.90;99.90
23186;DHT22;11761;51.324;4.590;2022-12-24T13:44:14;12.80;99.90
23186;DHT22;11761;51.324;4.590;2022-12-24T13:49:42;12.80;99.90
23186;DHT22;11761;51.324;4.590;2022-12-24T13:55:13;12.70;99.90
23186;DHT22;11761;51.324;4.590;2022-12-24T13:57:44;12.90;99.90
23186;DHT22;11761;51.324;4.590;2022-12-24T14:02:55;13.70;99.90
23186;DHT22;11761;51.324;4.590;2022-12-24T14:08:09;13.90;99.90
23186;DHT22;11761;51.324;4.590;2022-12-24T14:10:44;13.50;99.90
23186;DHT22;11761;51.324;4.590;2022-12-24T14:18:32;13.00;99.90
23186;DHT22;11761;51.324;4.590;2022-12-24T14:21:00;12.70;99.90
23186;DHT22;11761;51.324;4.590;2022-12-24T14:24:05;12.60;99.90
23186;DHT22;11761;51.324;4.590;2022-12-24T14:26:32;12.40;99.90
23186;DHT22;11761;51.324;4.590;2022-12-24T14:29:06;12.20;99.90
23186;DHT22;11761;51.324;4.590;2022-12-24T14:31:32;12.10;99.90
23186;DHT22;11761;51.324;4.590;2022-12-24T14:34:06;12.00;99.90
23186;DHT22;11761;51.324;4.590;2022-12-24T14:36:32;12.00;99.90
23186;DHT22;11761;51.324;4.590;2022-12-24T14:38:59;11.80;99.90
23186;DHT22;11761;51.324;4.590;2022-12-24T14:41:41;11.90;99.90
23186;DHT22;11761;51.324;4.590;2022-12-24T14:45:12;11.80;99.90
23186;DHT22;11761;51.324;4.590;2022-12-24T14:47:29;11.80;99.90
23186;DHT22;11761;51.324;4.590;2022-12-24T14:55:40;11.40;99.90
23186;DHT22;11761;51.324;4.590;2022-12-24T14:58:26;11.30;99.90
23186;DHT22;11761;51.324;4.590;2022-12-24T15:01:17;11.30;99.90
23186;DHT22;11761;51.324;4.590;2022-12-24T15:03:41;11.30;99.90
23186;DHT22;11761;51.324;4.590;2022-12-24T15:06:10;10.90;99.90
23186;DHT22;11761;51.324;4.590;2022-12-24T15:08:44;11.00;99.90
23186;DHT22;11761;51.324;4.590;2022-12-24T15:11:20;10.90;99.90
23186;DHT22;11761;51.324;4.590;2022-12-24T15:13:53;10.60;99.90
23186;DHT22;11761;51.324;4.590;2022-12-24T15:16:23;10.50;99.90
23186;DHT22;11761;51.324;4.590;2022-12-24T15:18:59;10.50;99.90
23186;DHT22;11761;51.324;4.590;2022-12-24T15:21:33;10.40;99.90
23186;DHT22;11761;51.324;4.590;2022-12-24T15:24:02;10.10;99.90
23186;DHT22;11761;51.324;4.590;2022-12-24T15:26:34;10.10;99.90
23186;DHT22;11761;51.324;4.590;2022-12-24T15:29:15;10.10;99.90
23186;DHT22;11761;51.324;4.590;2022-12-24T15:31:44;10.00;99.90
23186;DHT22;11761;51.324;4.590;2022-12-24T15:37:13;10.10;99.90
23186;DHT22;11761;51.324;4.590;2022-12-24T15:39:41;10.00;99.90
23186;DHT22;11761;51.324;4.590;2022-12-24T15:42:09;10.00;99.90
23186;DHT22;11761;51.324;4.590;2022-12-24T15:47:33;10.30;99.90
23186;DHT22;11761;51.324;4.590;2022-12-24T15:50:12;10.40;99.90
23186;DHT22;11761;51.324;4.590;2022-12-24T15:52:40;10.30;99.90
23186;DHT22;11761;51.324;4.590;2022-12-24T15:55:37;10.20;99.90
23186;DHT22;11761;51.324;4.590;2022-12-24T16:00:43;10.10;99.90
23186;DHT22;11761;51.324;4.590;2022-12-24T16:03:24;10.10;99.90
23186;DHT22;11761;51.324;4.590;2022-12-24T16:06:09;10.20;99.90
23186;DHT22;11761;51.324;4.590;2022-12-24T16:08:38;10.40;99.90
23186;DHT22;11761;51.324;4.590;2022-12-24T16:11:06;10.70;99.90
23186;DHT22;11761;51.324;4.590;2022-12-24T16:16:28;10.90;99.90
23186;DHT22;11761;51.324;4.590;2022-12-24T16:18:57;10.90;99.90
23186;DHT22;11761;51.324;4.590;2022-12-24T16:23:56;11.00;99.90
23186;DHT22;11761;51.324;4.590;2022-12-24T16:26:23;11.10;99.90
23186;DHT22;11761;51.324;4.590;2022-12-24T16:28:49;11.10;99.90
23186;DHT22;11761;51.324;4.590;2022-12-24T16:31:18;11.10;99.90
23186;DHT22;11761;51.324;4.590;2022-12-24T16:33:45;11.10;99.90
23186;DHT22;11761;51.324;4.590;2022-12-24T16:36:12;11.00;99.90
23186;DHT22;11761;51.324;4.590;2022-12-24T16:38:38;11.00;99.90
23186;DHT22;11761;51.324;4.590;2022-12-24T16:41:23;10.90;99.90
23186;DHT22;11761;51.324;4.590;2022-12-24T16:43:49;10.90;99.90
23186;DHT22;11761;51.324;4.590;2022-12-24T16:46:15;10.80;99.90
23186;DHT22;11761;51.324;4.590;2022-12-24T16:48:46;10.80;99.90
23186;DHT22;11761;51.324;4.590;2022-12-24T16:51:13;10.50;99.90
23186;DHT22;11761;51.324;4.590;2022-12-24T16:53:39;10.40;99.90
23186;DHT22;11761;51.324;4.590;2022-12-24T16:56:06;10.20;99.90
23186;DHT22;11761;51.324;4.590;2022-12-24T16:58:32;10.00;99.90
23186;DHT22;11761;51.324;4.590;2022-12-24T17:01:05;9.80;99.90
23186;DHT22;11761;51.324;4.590;2022-12-24T17:03:31;9.80;99.90
23186;DHT22;11761;51.324;4.590;2022-12-24T17:05:57;9.80;99.90
23186;DHT22;11761;51.324;4.590;2022-12-24T17:08:23;9.80;99.90
23186;DHT22;11761;51.324;4.590;2022-12-24T17:10:50;9.60;99.90
23186;DHT22;11761;51.324;4.590;2022-12-24T17:13:17;9.40;99.90
23186;DHT22;11761;51.324;4.590;2022-12-24T17:15:43;9.50;99.90
23186;DHT22;11761;51.324;4.590;2022-12-24T17:18:09;9.30;99.90
23186;DHT22;11761;51.324;4.590;2022-12-24T17:20:35;9.30;99.90
23186;DHT22;11761;51.324;4.590;2022-12-24T17:23:01;9.40;99.90
23186;DHT22;11761;51.324;4.590;2022-12-24T17:25:28;9.60;99.90
23186;DHT22;11761;51.324;4.590;2022-12-24T17:27:54;9.80;99.90
23186;DHT22;11761;51.324;4.590;2022-12-24T17:30:20;9.60;99.90
23186;DHT22;11761;51.324;4.590;2022-12-24T17:32:46;9.40;99.90
23186;DHT22;11761;51.324;4.590;2022-12-24T17:35:13;9.40;99.90
23186;DHT22;11761;51.324;4.590;2022-12-24T17:37:40;9.60;99.90
23186;DHT22;11761;51.324;4.590;2022-12-24T17:40:07;9.50;99.90
23186;DHT22;11761;51.324;4.590;2022-12-24T17:42:33;9.60;99.90
23186;DHT22;11761;51.324;4.590;2022-12-24T17:44:59;9.50;99.90
23186;DHT22;11761;51.324;4.590;2022-12-24T17:47:25;9.40;99.90
23186;DHT22;11761;51.324;4.590;2022-12-24T17:49:52;9.60;99.90
23186;DHT22;11761;51.324;4.590;2022-12-24T17:52:18;9.60;99.90